Time;durP1;ratioP1;P1;durP2;ratioP2;P2;SDS_P1;SDS_P2;PMS_P1;PMS_P2;Temp;Humidity;BMP_temperature;BMP_pressure;BME280_temperature;BME280_humidity;BME280_pressure;Samples;Min_cycle;Max_cycle;Signal;HPM_P1;HPM_P2
2022/11/07 00:01:45;;;;;;;;;;;10.90;99.90;;;;;;5131936;28;20014;-68
2022/11/07 00:04:11;;;;;;;;;;;10.80;99.90;;;;;;5132309;28;20027;-68
2022/11/07 00:06:38;;;;;;;;;;;10.80;99.90;;;;;;5132290;28;19923;-68
2022/11/07 00:09:05;;;;;;;;;;;10.80;99.90;;;;;;5129428;28;19923;-68
2022/11/07 00:11:31;;;;;;;;;;;10.80;99.90;;;;;;5130544;28;19971;-67
2022/11/07 00:13:58;;;;;;;;;;;10.80;99.90;;;;;;5130944;28;19967;-68
2022/11/07 00:16:25;;;;;;;;;;;10.80;99.90;;;;;;5132139;27;19923;-67
2022/11/07 00:18:53;;;;;;;;;;;10.80;99.90;;;;;;5136214;27;20434;-68
2022/11/07 00:21:20;;;;;;;;;;;10.80;99.90;;;;;;5136290;27;19924;-68
2022/11/07 00:23:46;;;;;;;;;;;10.80;99.90;;;;;;5133931;27;20017;-68
2022/11/07 00:26:14;;;;;;;;;;;10.80;99.90;;;;;;5132262;27;20279;-68
2022/11/07 00:28:42;;;;;;;;;;;10.80;99.90;;;;;;5135317;27;19931;-67
2022/11/07 00:31:09;;;;;;;;;;;10.80;99.90;;;;;;5135644;27;19923;-68
2022/11/07 00:33:36;;;;;;;;;;;10.80;99.90;;;;;;5131611;27;20011;-68
2022/11/07 00:36:04;;;;;;;;;;;10.80;99.90;;;;;;5135926;27;20022;-67
2022/11/07 00:38:32;;;;;;;;;;;10.80;99.90;;;;;;5133494;27;20002;-67
2022/11/07 00:40:59;;;;;;;;;;;10.80;99.90;;;;;;5135339;27;20441;-68
2022/11/07 00:43:26;;;;;;;;;;;10.80;99.90;;;;;;5134884;27;19963;-67
2022/11/07 00:45:53;;;;;;;;;;;10.90;99.90;;;;;;5135015;27;19927;-67
2022/11/07 00:48:19;;;;;;;;;;;10.90;99.90;;;;;;5131537;27;20386;-68
2022/11/07 00:50:46;;;;;;;;;;;10.80;99.90;;;;;;5133916;27;19927;-68
2022/11/07 00:53:14;;;;;;;;;;;10.90;99.90;;;;;;5132829;27;20473;-68
2022/11/07 00:55:41;;;;;;;;;;;10.90;99.90;;;;;;5132801;27;19974;-68
2022/11/07 00:58:08;;;;;;;;;;;10.90;99.90;;;;;;5132422;27;19939;-68
2022/11/07 01:00:35;;;;;;;;;;;11.00;99.90;;;;;;5131936;27;19968;-68
2022/11/07 01:05:54;;;;;;;;;;;11.00;99.90;;;;;;5133087;27;19977;-68
2022/11/07 01:08:22;;;;;;;;;;;11.00;99.90;;;;;;5132568;27;19930;-68
2022/11/07 01:10:49;;;;;;;;;;;11.00;99.90;;;;;;5132819;27;20441;-68
2022/11/07 01:13:16;;;;;;;;;;;11.00;99.90;;;;;;5133951;27;20445;-68
2022/11/07 01:15:42;;;;;;;;;;;11.10;99.90;;;;;;5133777;27;19924;-67
2022/11/07 01:18:09;;;;;;;;;;;11.10;99.90;;;;;;5134296;27;20047;-67
2022/11/07 01:20:36;;;;;;;;;;;11.10;99.90;;;;;;5134323;27;20025;-67
2022/11/07 01:23:03;;;;;;;;;;;11.10;99.90;;;;;;5132312;27;19934;-67
2022/11/07 01:25:31;;;;;;;;;;;11.20;99.90;;;;;;5134467;27;19931;-67
2022/11/07 01:27:57;;;;;;;;;;;11.20;99.90;;;;;;5134025;27;19956;-67
2022/11/07 01:30:24;;;;;;;;;;;11.20;99.90;;;;;;5134289;27;19930;-68
2022/11/07 01:32:51;;;;;;;;;;;11.20;99.90;;;;;;5133826;27;19924;-67
2022/11/07 01:35:17;;;;;;;;;;;11.20;99.90;;;;;;5134439;27;20348;-67
2022/11/07 01:37:44;;;;;;;;;;;11.20;99.90;;;;;;5133259;27;19930;-67
2022/11/07 01:40:11;;;;;;;;;;;11.20;99.90;;;;;;5126061;27;19924;-68
2022/11/07 01:42:39;;;;;;;;;;;11.20;99.90;;;;;;5131491;27;20022;-68
2022/11/07 01:45:06;;;;;;;;;;;11.30;99.90;;;;;;5124653;27;20038;-67
2022/11/07 01:47:36;;;;;;;;;;;11.30;99.90;;;;;;5134724;27;20524;-67
2022/11/07 01:50:03;;;;;;;;;;;11.30;99.90;;;;;;5120155;27;20019;-68
2022/11/07 01:52:31;;;;;;;;;;;11.30;99.90;;;;;;5133397;27;20386;-68
2022/11/07 01:55:01;;;;;;;;;;;11.40;99.90;;;;;;5134433;27;19923;-68
2022/11/07 01:57:31;;;;;;;;;;;11.40;99.90;;;;;;5133306;27;19930;-67
2022/11/07 02:00:01;;;;;;;;;;;11.40;99.90;;;;;;5131813;27;19930;-68
2022/11/07 02:02:28;;;;;;;;;;;11.50;99.90;;;;;;5134211;27;20400;-68
2022/11/07 02:04:56;;;;;;;;;;;11.50;99.90;;;;;;5128945;27;19959;-68
2022/11/07 02:07:23;;;;;;;;;;;11.50;99.90;;;;;;5131381;27;19923;-68
2022/11/07 02:09:50;;;;;;;;;;;11.50;99.90;;;;;;5133673;27;19923;-68
2022/11/07 02:12:18;;;;;;;;;;;11.50;99.90;;;;;;5130785;27;19924;-68
2022/11/07 02:14:45;;;;;;;;;;;11.50;99.90;;;;;;5132976;27;19958;-68
2022/11/07 02:17:14;;;;;;;;;;;11.50;99.90;;;;;;5133304;27;19932;-68
2022/11/07 02:19:42;;;;;;;;;;;11.50;99.90;;;;;;5133936;27;20006;-71
2022/11/07 02:22:12;;;;;;;;;;;11.50;99.90;;;;;;5133583;27;20014;-71
2022/11/07 02:24:40;;;;;;;;;;;11.50;99.90;;;;;;5132658;27;20018;-71
2022/11/07 02:27:09;;;;;;;;;;;11.50;99.90;;;;;;5132083;27;20473;-71
2022/11/07 02:29:37;;;;;;;;;;;11.50;99.90;;;;;;5125352;27;20026;-71
2022/11/07 02:32:05;;;;;;;;;;;11.60;99.90;;;;;;5128979;27;19928;-71
2022/11/07 02:34:32;;;;;;;;;;;11.50;99.90;;;;;;5132456;27;20019;-71
2022/11/07 02:36:59;;;;;;;;;;;11.50;99.90;;;;;;5132727;27;20022;-71
2022/11/07 02:39:26;;;;;;;;;;;11.60;99.90;;;;;;5133023;27;20026;-71
2022/11/07 02:41:55;;;;;;;;;;;11.60;99.90;;;;;;5130740;27;20018;-71
2022/11/07 02:44:22;;;;;;;;;;;11.60;99.90;;;;;;5132748;27;20370;-71
2022/11/07 02:46:49;;;;;;;;;;;11.60;99.90;;;;;;5133319;27;20293;-71
2022/11/07 02:49:15;;;;;;;;;;;11.60;99.90;;;;;;5132763;27;20010;-70
2022/11/07 02:51:42;;;;;;;;;;;11.50;99.90;;;;;;5131909;27;20014;-70
2022/11/07 02:54:09;;;;;;;;;;;11.50;99.90;;;;;;5133297;27;19929;-71
2022/11/07 02:56:35;;;;;;;;;;;11.50;99.90;;;;;;5131675;27;19923;-70
2022/11/07 02:59:03;;;;;;;;;;;11.50;99.90;;;;;;5131998;27;19924;-70
2022/11/07 03:01:30;;;;;;;;;;;11.50;99.90;;;;;;5132357;27;19998;-71
2022/11/07 03:03:57;;;;;;;;;;;11.50;99.90;;;;;;5133435;27;19923;-71
2022/11/07 03:06:24;;;;;;;;;;;11.50;99.90;;;;;;5132476;27;20018;-71
2022/11/07 03:08:51;;;;;;;;;;;11.50;99.90;;;;;;5131966;27;19924;-71
2022/11/07 03:11:18;;;;;;;;;;;11.50;99.90;;;;;;5132675;27;19970;-71
2022/11/07 03:13:45;;;;;;;;;;;11.50;99.90;;;;;;5133181;27;20366;-71
2022/11/07 03:16:14;;;;;;;;;;;11.50;99.90;;;;;;5131620;27;20403;-71
2022/11/07 03:18:41;;;;;;;;;;;11.50;99.90;;;;;;5131966;27;19930;-71
2022/11/07 03:21:07;;;;;;;;;;;11.50;99.90;;;;;;5131907;27;20026;-71
2022/11/07 03:23:35;;;;;;;;;;;11.40;99.90;;;;;;5131917;28;20022;-71
2022/11/07 03:26:01;;;;;;;;;;;11.40;99.90;;;;;;5121373;28;19950;-71
2022/11/07 03:28:28;;;;;;;;;;;11.40;99.90;;;;;;5131362;28;19925;-71
2022/11/07 03:30:55;;;;;;;;;;;11.40;99.90;;;;;;5131325;28;19929;-71
2022/11/07 03:33:23;;;;;;;;;;;11.40;99.90;;;;;;5131583;28;19927;-71
2022/11/07 03:35:49;;;;;;;;;;;11.40;99.90;;;;;;5124494;28;19924;-71
2022/11/07 03:38:16;;;;;;;;;;;11.40;99.90;;;;;;5125603;28;19935;-71
2022/11/07 03:40:45;;;;;;;;;;;11.40;99.90;;;;;;5131498;28;19923;-71
2022/11/07 03:43:11;;;;;;;;;;;11.50;99.90;;;;;;5115693;28;19938;-70
2022/11/07 03:45:38;;;;;;;;;;;11.50;99.90;;;;;;5129834;28;19923;-71
2022/11/07 03:48:05;;;;;;;;;;;11.50;99.90;;;;;;5130384;28;20022;-71
2022/11/07 03:50:33;;;;;;;;;;;11.40;99.90;;;;;;5122081;28;20393;-71
2022/11/07 03:53:00;;;;;;;;;;;11.50;99.90;;;;;;5133566;27;19934;-71
2022/11/07 03:55:26;;;;;;;;;;;11.50;99.90;;;;;;5136450;27;19970;-70
2022/11/07 03:57:53;;;;;;;;;;;11.50;99.90;;;;;;5136058;27;19930;-71
2022/11/07 04:00:19;;;;;;;;;;;11.50;99.90;;;;;;5123819;27;20293;-71
2022/11/07 04:02:46;;;;;;;;;;;11.50;99.90;;;;;;5134585;27;20267;-70
2022/11/07 04:05:13;;;;;;;;;;;11.50;99.90;;;;;;5127260;27;19958;-71
2022/11/07 04:07:41;;;;;;;;;;;11.60;99.90;;;;;;5133643;27;19992;-71
2022/11/07 04:10:08;;;;;;;;;;;11.60;99.90;;;;;;5128251;27;19930;-71
2022/11/07 04:18:11;;;;;;;;;;;11.70;99.90;;;;;;5135433;27;20302;-71
2022/11/07 04:20:37;;;;;;;;;;;11.70;99.90;;;;;;5134424;27;20010;-71
2022/11/07 04:23:05;;;;;;;;;;;11.70;99.90;;;;;;5135534;27;19930;-71
2022/11/07 04:28:16;;;;;;;;;;;11.80;99.90;;;;;;5132639;27;20011;-71
2022/11/07 04:30:43;;;;;;;;;;;11.80;99.90;;;;;;5124109;27;20408;-72
2022/11/07 04:33:10;;;;;;;;;;;11.80;99.90;;;;;;5135088;27;19924;-72
2022/11/07 04:35:36;;;;;;;;;;;11.80;99.90;;;;;;5129025;27;19927;-72
2022/11/07 04:38:03;;;;;;;;;;;11.80;99.90;;;;;;5134775;27;19924;-71
2022/11/07 04:40:31;;;;;;;;;;;11.80;99.90;;;;;;5131535;27;20652;-72
2022/11/07 04:42:58;;;;;;;;;;;11.80;99.90;;;;;;5131333;27;20014;-72
2022/11/07 04:45:25;;;;;;;;;;;11.80;99.90;;;;;;5133999;27;20316;-72
2022/11/07 04:47:51;;;;;;;;;;;11.80;99.90;;;;;;5128329;27;20351;-72
2022/11/07 04:50:19;;;;;;;;;;;11.80;99.90;;;;;;5125505;27;20015;-71
2022/11/07 04:52:46;;;;;;;;;;;11.80;99.90;;;;;;5134188;27;19992;-72
2022/11/07 04:55:17;;;;;;;;;;;11.80;99.90;;;;;;5135055;27;19923;-72
2022/11/07 04:57:45;;;;;;;;;;;11.80;99.90;;;;;;5134520;27;19952;-72
2022/11/07 05:00:12;;;;;;;;;;;11.80;99.90;;;;;;5134377;27;19970;-72
2022/11/07 05:02:39;;;;;;;;;;;11.80;99.90;;;;;;5133717;27;20292;-72
2022/11/07 05:05:06;;;;;;;;;;;11.80;99.90;;;;;;5132472;27;19923;-72
2022/11/07 05:07:33;;;;;;;;;;;11.80;99.90;;;;;;5128793;27;20027;-72
2022/11/07 05:09:59;;;;;;;;;;;11.80;99.90;;;;;;5134540;27;20341;-71
2022/11/07 05:12:26;;;;;;;;;;;11.80;99.90;;;;;;5132867;27;20400;-72
2022/11/07 05:14:54;;;;;;;;;;;11.70;99.90;;;;;;5130925;27;20006;-72
2022/11/07 05:17:21;;;;;;;;;;;11.70;99.90;;;;;;5134501;27;20337;-71
2022/11/07 05:19:47;;;;;;;;;;;11.70;99.90;;;;;;5133104;27;20014;-71
2022/11/07 05:24:58;;;;;;;;;;;11.80;99.90;;;;;;5134037;27;19930;-71
2022/11/07 05:27:25;;;;;;;;;;;11.80;99.90;;;;;;5133288;27;19924;-71
2022/11/07 05:29:52;;;;;;;;;;;11.80;99.90;;;;;;5134008;27;20010;-71
2022/11/07 05:32:20;;;;;;;;;;;11.80;99.90;;;;;;5133432;27;19923;-70
2022/11/07 05:34:46;;;;;;;;;;;11.80;99.90;;;;;;5130843;27;19928;-71
2022/11/07 05:37:13;;;;;;;;;;;11.80;99.90;;;;;;5132524;27;19923;-71
2022/11/07 05:39:40;;;;;;;;;;;11.70;99.90;;;;;;5134800;27;20018;-71
2022/11/07 05:42:07;;;;;;;;;;;11.70;99.90;;;;;;5135002;27;19971;-71
2022/11/07 05:44:33;;;;;;;;;;;11.70;99.90;;;;;;5131757;27;20345;-72
2022/11/07 05:47:00;;;;;;;;;;;11.80;99.90;;;;;;5129573;27;19930;-71
2022/11/07 05:49:28;;;;;;;;;;;11.80;99.90;;;;;;5133295;27;20365;-71
2022/11/07 05:51:56;;;;;;;;;;;11.80;99.90;;;;;;5131195;27;19962;-70
2022/11/07 05:54:23;;;;;;;;;;;11.80;99.90;;;;;;5130285;27;19951;-71
2022/11/07 05:56:50;;;;;;;;;;;11.80;99.90;;;;;;5132941;27;19928;-71
2022/11/07 05:59:16;;;;;;;;;;;11.80;99.90;;;;;;5132383;27;19980;-70
2022/11/07 06:01:43;;;;;;;;;;;11.80;99.90;;;;;;5128513;27;20404;-70
2022/11/07 06:04:10;;;;;;;;;;;11.90;99.90;;;;;;5122360;27;20426;-71
2022/11/07 06:06:38;;;;;;;;;;;11.80;99.90;;;;;;5134150;27;19930;-70
2022/11/07 06:09:04;;;;;;;;;;;11.80;99.90;;;;;;5114145;27;19924;-70
2022/11/07 06:11:31;;;;;;;;;;;11.80;99.90;;;;;;5124822;27;20398;-71
2022/11/07 06:13:58;;;;;;;;;;;11.80;99.90;;;;;;5133777;27;19959;-71
2022/11/07 06:16:25;;;;;;;;;;;11.80;99.90;;;;;;5133342;27;20018;-71
2022/11/07 06:18:51;;;;;;;;;;;11.80;99.90;;;;;;5132151;27;19966;-71
2022/11/07 06:21:18;;;;;;;;;;;11.80;99.90;;;;;;5133789;27;20014;-70
2022/11/07 06:23:46;;;;;;;;;;;11.80;99.90;;;;;;5131394;27;20006;-71
2022/11/07 06:26:14;;;;;;;;;;;11.70;99.90;;;;;;5133013;27;19924;-71
2022/11/07 06:28:40;;;;;;;;;;;11.70;99.90;;;;;;5133238;27;19930;-72
2022/11/07 06:31:07;;;;;;;;;;;11.70;99.90;;;;;;5132234;27;20366;-70
2022/11/07 06:33:34;;;;;;;;;;;11.70;99.90;;;;;;5131451;27;20026;-71
2022/11/07 06:36:07;;;;;;;;;;;11.70;99.90;;;;;;5133897;27;20006;-70
2022/11/07 06:38:34;;;;;;;;;;;11.70;99.90;;;;;;5116027;27;19958;-70
2022/11/07 06:41:06;;;;;;;;;;;11.70;99.90;;;;;;5130322;27;20410;-71
2022/11/07 06:43:33;;;;;;;;;;;11.70;99.90;;;;;;5132674;27;19924;-71
2022/11/07 06:46:02;;;;;;;;;;;11.70;99.90;;;;;;5122386;27;19923;-71
2022/11/07 06:48:28;;;;;;;;;;;11.70;99.90;;;;;;5133321;27;19930;-71
2022/11/07 06:50:58;;;;;;;;;;;11.70;99.90;;;;;;5132580;27;19931;-71
2022/11/07 06:53:25;;;;;;;;;;;11.70;99.90;;;;;;5131660;27;20293;-73
2022/11/07 06:55:52;;;;;;;;;;;11.70;99.90;;;;;;5131913;27;20030;-72
2022/11/07 06:58:20;;;;;;;;;;;11.80;99.90;;;;;;5132868;27;19930;-71
2022/11/07 07:00:47;;;;;;;;;;;11.70;99.90;;;;;;5132870;27;20022;-72
2022/11/07 07:03:14;;;;;;;;;;;11.70;99.90;;;;;;5133751;27;20335;-71
2022/11/07 07:05:40;;;;;;;;;;;11.70;99.90;;;;;;5131940;27;19961;-70
2022/11/07 07:08:07;;;;;;;;;;;11.70;99.90;;;;;;5123185;27;19932;-71
2022/11/07 07:10:36;;;;;;;;;;;11.70;99.90;;;;;;5125468;27;20006;-70
2022/11/07 07:13:03;;;;;;;;;;;11.80;99.90;;;;;;5131615;27;19923;-70
2022/11/07 07:15:31;;;;;;;;;;;11.80;99.90;;;;;;5127802;27;19932;-69
2022/11/07 07:17:59;;;;;;;;;;;11.80;99.90;;;;;;5131367;27;20346;-69
2022/11/07 07:20:25;;;;;;;;;;;11.90;99.90;;;;;;5132784;27;20335;-70
2022/11/07 07:22:52;;;;;;;;;;;11.80;99.90;;;;;;5128432;27;19981;-70
2022/11/07 07:25:19;;;;;;;;;;;11.80;99.90;;;;;;5125642;27;20321;-69
2022/11/07 07:27:45;;;;;;;;;;;11.80;99.90;;;;;;5124783;27;19930;-70
2022/11/07 07:30:12;;;;;;;;;;;11.90;99.90;;;;;;5131264;27;20002;-71
2022/11/07 07:32:40;;;;;;;;;;;11.90;99.90;;;;;;5131590;27;20004;-70
2022/11/07 07:35:08;;;;;;;;;;;11.90;99.90;;;;;;5132054;28;19941;-70
2022/11/07 07:37:35;;;;;;;;;;;11.90;99.90;;;;;;5124080;28;19930;-71
2022/11/07 07:40:02;;;;;;;;;;;11.90;99.90;;;;;;5132559;27;19933;-71
2022/11/07 07:42:28;;;;;;;;;;;12.00;99.90;;;;;;5124312;28;19930;-70
2022/11/07 07:44:55;;;;;;;;;;;12.00;99.90;;;;;;5132253;27;19927;-70
2022/11/07 07:47:22;;;;;;;;;;;12.00;99.90;;;;;;5131094;27;20015;-70
2022/11/07 07:49:50;;;;;;;;;;;12.10;99.90;;;;;;5131843;28;20026;-71
2022/11/07 07:52:16;;;;;;;;;;;12.10;99.90;;;;;;5130747;27;20466;-70
2022/11/07 07:54:43;;;;;;;;;;;12.10;99.90;;;;;;5130243;28;19962;-70
2022/11/07 07:57:09;;;;;;;;;;;12.10;99.90;;;;;;5130266;28;20010;-70
2022/11/07 07:59:36;;;;;;;;;;;12.10;99.90;;;;;;5128181;28;19924;-70
2022/11/07 08:02:03;;;;;;;;;;;12.20;99.90;;;;;;5128555;27;20002;-70
2022/11/07 08:04:30;;;;;;;;;;;12.20;99.90;;;;;;5127927;28;20263;-69
2022/11/07 08:06:58;;;;;;;;;;;12.20;99.90;;;;;;5130670;28;19927;-68
2022/11/07 08:09:24;;;;;;;;;;;12.20;99.90;;;;;;5120751;28;19930;-69
2022/11/07 08:11:51;;;;;;;;;;;12.30;99.90;;;;;;5130846;28;19924;-69
2022/11/07 08:14:18;;;;;;;;;;;12.30;99.90;;;;;;5129942;28;19924;-70
2022/11/07 08:16:44;;;;;;;;;;;12.40;99.90;;;;;;5131948;28;19958;-69
2022/11/07 08:19:11;;;;;;;;;;;12.40;99.90;;;;;;5131699;28;19923;-69
2022/11/07 08:21:38;;;;;;;;;;;12.50;99.90;;;;;;5128798;28;19923;-70
2022/11/07 08:24:06;;;;;;;;;;;12.50;99.90;;;;;;5124604;28;20271;-70
2022/11/07 08:26:34;;;;;;;;;;;12.50;99.90;;;;;;5129005;28;20309;-69
2022/11/07 08:29:00;;;;;;;;;;;12.60;99.90;;;;;;5127175;28;19923;-70
2022/11/07 08:31:27;;;;;;;;;;;12.60;99.90;;;;;;5130518;27;19927;-69
2022/11/07 08:33:56;;;;;;;;;;;12.70;99.90;;;;;;5126668;28;19970;-69
2022/11/07 08:36:23;;;;;;;;;;;12.70;99.90;;;;;;5123053;27;20009;-69
2022/11/07 08:38:50;;;;;;;;;;;12.70;99.90;;;;;;5132255;27;20355;-69
2022/11/07 08:41:18;;;;;;;;;;;12.80;99.90;;;;;;5132817;27;20034;-69
2022/11/07 08:43:44;;;;;;;;;;;12.80;99.90;;;;;;5136248;27;20019;-71
2022/11/07 08:46:11;;;;;;;;;;;12.80;99.90;;;;;;5136159;27;19923;-71
2022/11/07 08:48:39;;;;;;;;;;;12.90;99.90;;;;;;5132214;27;19930;-70
2022/11/07 08:51:06;;;;;;;;;;;12.90;99.90;;;;;;5130353;27;19955;-72
2022/11/07 08:53:32;;;;;;;;;;;12.90;99.90;;;;;;5134647;27;19934;-71
2022/11/07 08:56:03;;;;;;;;;;;12.90;99.90;;;;;;5135009;27;19924;-71
2022/11/07 08:58:31;;;;;;;;;;;12.90;99.90;;;;;;5134342;27;19929;-72
2022/11/07 09:00:58;;;;;;;;;;;13.00;99.90;;;;;;5119007;27;19924;-72
2022/11/07 09:03:24;;;;;;;;;;;13.00;99.90;;;;;;5127877;27;19973;-71
2022/11/07 09:05:51;;;;;;;;;;;13.00;99.90;;;;;;5131025;27;20274;-71
2022/11/07 09:08:18;;;;;;;;;;;13.00;99.90;;;;;;5129743;27;20283;-71
2022/11/07 09:10:45;;;;;;;;;;;13.10;99.90;;;;;;5130121;27;20364;-71
2022/11/07 09:13:13;;;;;;;;;;;13.10;99.90;;;;;;5135120;27;19992;-71
2022/11/07 09:15:43;;;;;;;;;;;13.20;99.90;;;;;;5134190;27;20372;-71
2022/11/07 09:18:10;;;;;;;;;;;13.20;99.90;;;;;;5131674;27;19945;-70
2022/11/07 09:20:37;;;;;;;;;;;13.30;99.90;;;;;;5128064;27;19923;-71
2022/11/07 09:23:04;;;;;;;;;;;13.40;99.90;;;;;;5131524;27;19928;-71
2022/11/07 09:25:30;;;;;;;;;;;13.50;99.90;;;;;;5134288;27;20444;-70
2022/11/07 09:28:01;;;;;;;;;;;13.50;99.90;;;;;;5134400;27;19927;-71
2022/11/07 09:30:28;;;;;;;;;;;13.50;99.90;;;;;;5121931;27;19924;-70
2022/11/07 09:32:56;;;;;;;;;;;13.50;99.90;;;;;;5134006;27;20022;-70
2022/11/07 09:35:23;;;;;;;;;;;13.50;99.90;;;;;;5134089;27;19924;-71
2022/11/07 09:37:50;;;;;;;;;;;13.60;99.90;;;;;;5129994;27;19963;-69
2022/11/07 09:40:22;;;;;;;;;;;13.60;99.90;;;;;;5128422;27;19927;-69
2022/11/07 09:42:56;;;;;;;;;;;13.70;99.90;;;;;;5130867;27;19932;-71
2022/11/07 09:45:23;;;;;;;;;;;13.80;99.90;;;;;;5124608;27;20050;-71
2022/11/07 09:47:53;;;;;;;;;;;13.80;99.90;;;;;;5116276;27;19967;-72
2022/11/07 09:50:27;;;;;;;;;;;13.80;99.90;;;;;;5116977;27;19924;-71
2022/11/07 09:52:57;;;;;;;;;;;13.80;99.90;;;;;;5132243;27;20005;-71
2022/11/07 09:55:25;;;;;;;;;;;13.90;99.90;;;;;;5119901;27;19923;-71
2022/11/07 09:57:54;;;;;;;;;;;13.90;99.90;;;;;;5126992;27;19930;-71
2022/11/07 10:00:22;;;;;;;;;;;13.80;99.90;;;;;;5127584;27;20019;-71
2022/11/07 10:02:50;;;;;;;;;;;13.90;99.90;;;;;;5120743;27;19924;-72
2022/11/07 10:05:23;;;;;;;;;;;14.00;99.90;;;;;;5118505;27;19958;-72
2022/11/07 10:07:56;;;;;;;;;;;14.20;99.90;;;;;;5128062;27;20389;-71
2022/11/07 10:10:27;;;;;;;;;;;14.20;99.90;;;;;;5125646;27;19946;-71
2022/11/07 10:13:15;;;;;;;;;;;14.20;99.90;;;;;;5127239;27;19938;-70
2022/11/07 10:15:47;;;;;;;;;;;14.20;99.90;;;;;;5126750;27;19923;-70
2022/11/07 10:18:17;;;;;;;;;;;14.20;99.90;;;;;;5124248;27;20016;-71
2022/11/07 10:20:49;;;;;;;;;;;14.20;99.90;;;;;;5127138;27;20444;-71
2022/11/07 10:23:27;;;;;;;;;;;14.20;99.90;;;;;;5118609;27;20006;-71
2022/11/07 10:25:58;;;;;;;;;;;14.10;99.90;;;;;;5122705;27;19969;-71
2022/11/07 10:28:25;;;;;;;;;;;14.10;99.90;;;;;;5119046;27;19973;-71
2022/11/07 10:30:52;;;;;;;;;;;14.10;99.90;;;;;;5130396;27;19923;-71
2022/11/07 10:33:24;;;;;;;;;;;14.10;99.90;;;;;;5128100;27;20449;-71
2022/11/07 10:35:54;;;;;;;;;;;14.10;99.90;;;;;;5127495;27;19923;-71
2022/11/07 10:38:25;;;;;;;;;;;14.00;99.90;;;;;;5121676;27;19930;-72
2022/11/07 10:40:53;;;;;;;;;;;14.00;99.90;;;;;;5120672;27;19924;-72
2022/11/07 10:43:24;;;;;;;;;;;14.10;99.90;;;;;;5115651;27;19930;-72
2022/11/07 10:45:52;;;;;;;;;;;14.10;99.90;;;;;;5121920;27;19930;-72
2022/11/07 10:48:18;;;;;;;;;;;14.10;99.90;;;;;;5127039;27;19966;-72
2022/11/07 10:50:50;;;;;;;;;;;14.20;99.90;;;;;;5131175;27;20334;-73
2022/11/07 10:53:19;;;;;;;;;;;14.20;99.90;;;;;;5125593;27;20006;-70
2022/11/07 10:55:47;;;;;;;;;;;14.20;99.90;;;;;;5112560;28;20019;-72
2022/11/07 10:58:18;;;;;;;;;;;14.20;99.90;;;;;;5126508;27;20002;-73
2022/11/07 11:00:55;;;;;;;;;;;14.30;99.90;;;;;;5128204;27;19930;-73
2022/11/07 11:03:26;;;;;;;;;;;14.30;99.90;;;;;;5113624;27;19927;-71
2022/11/07 11:05:53;;;;;;;;;;;14.30;99.90;;;;;;5125308;27;19923;-71
2022/11/07 11:08:21;;;;;;;;;;;14.40;99.90;;;;;;5131688;27;20017;-73
2022/11/07 11:10:50;;;;;;;;;;;14.50;99.90;;;;;;5129877;27;19971;-71
2022/11/07 11:13:27;;;;;;;;;;;14.60;99.90;;;;;;5129744;27;19924;-72
2022/11/07 11:15:54;;;;;;;;;;;14.70;99.90;;;;;;5127076;27;19923;-72
2022/11/07 11:18:21;;;;;;;;;;;14.70;99.90;;;;;;5127551;27;19986;-69
2022/11/07 11:20:54;;;;;;;;;;;14.80;99.90;;;;;;5125684;27;19923;-71
2022/11/07 11:23:23;;;;;;;;;;;14.80;99.90;;;;;;5125330;27;19924;-71
2022/11/07 11:25:53;;;;;;;;;;;14.80;99.90;;;;;;5124228;27;20014;-71
2022/11/07 11:28:22;;;;;;;;;;;14.90;99.90;;;;;;5127035;28;19985;-70
2022/11/07 11:30:53;;;;;;;;;;;14.80;99.90;;;;;;5123594;28;20054;-70
2022/11/07 11:33:22;;;;;;;;;;;14.80;99.90;;;;;;5123470;28;19933;-71
2022/11/07 11:35:53;;;;;;;;;;;14.70;99.90;;;;;;5127349;28;19923;-73
2022/11/07 11:38:22;;;;;;;;;;;14.70;99.90;;;;;;5118154;28;20019;-72
2022/11/07 11:40:52;;;;;;;;;;;14.70;99.90;;;;;;5127676;28;20014;-71
2022/11/07 11:43:21;;;;;;;;;;;14.70;99.90;;;;;;5128467;28;20004;-72
2022/11/07 11:45:53;;;;;;;;;;;14.60;99.90;;;;;;5122274;28;20430;-71
2022/11/07 11:48:23;;;;;;;;;;;14.60;99.90;;;;;;5117131;28;20408;-72
2022/11/07 11:50:52;;;;;;;;;;;14.50;99.90;;;;;;5121346;28;19930;-69
2022/11/07 11:53:20;;;;;;;;;;;14.40;99.90;;;;;;5114896;28;20289;-71
2022/11/07 11:55:51;;;;;;;;;;;14.40;99.90;;;;;;5126163;28;20015;-72
2022/11/07 11:58:23;;;;;;;;;;;14.40;99.90;;;;;;5116352;28;20339;-70
2022/11/07 12:00:53;;;;;;;;;;;14.40;99.90;;;;;;5127636;28;19923;-71
2022/11/07 12:03:38;;;;;;;;;;;14.50;99.90;;;;;;5125895;28;19924;-70
2022/11/07 12:06:15;;;;;;;;;;;14.60;99.90;;;;;;5121344;28;20019;-70
2022/11/07 12:08:47;;;;;;;;;;;14.70;99.90;;;;;;5120757;28;19924;-70
2022/11/07 12:11:20;;;;;;;;;;;14.70;99.90;;;;;;5124184;28;19924;-71
2022/11/07 12:13:53;;;;;;;;;;;14.70;99.90;;;;;;5125883;27;20374;-70
2022/11/07 12:16:25;;;;;;;;;;;14.70;99.90;;;;;;5129697;27;20018;-70
2022/11/07 12:18:56;;;;;;;;;;;14.70;99.90;;;;;;5126351;27;20045;-72
2022/11/07 12:21:30;;;;;;;;;;;14.80;99.90;;;;;;5134505;27;19924;-72
2022/11/07 12:24:08;;;;;;;;;;;14.70;99.90;;;;;;5133403;27;19924;-72
2022/11/07 12:26:36;;;;;;;;;;;14.70;99.90;;;;;;5125559;27;20456;-72
2022/11/07 12:29:08;;;;;;;;;;;14.80;99.90;;;;;;5133293;27;19935;-72
2022/11/07 12:31:39;;;;;;;;;;;14.80;99.90;;;;;;5127172;27;20022;-72
2022/11/07 12:34:11;;;;;;;;;;;14.90;99.90;;;;;;5121104;27;19930;-73
2022/11/07 12:36:45;;;;;;;;;;;15.00;99.90;;;;;;5117160;27;19974;-72
2022/11/07 12:39:33;;;;;;;;;;;15.10;99.90;;;;;;5115695;27;19930;-70
2022/11/07 12:42:06;;;;;;;;;;;15.10;99.90;;;;;;5127043;27;19946;-71
2022/11/07 12:44:40;;;;;;;;;;;15.20;99.90;;;;;;5124982;27;19930;-72
2022/11/07 12:47:11;;;;;;;;;;;15.20;99.90;;;;;;5131756;27;20006;-72
2022/11/07 12:50:01;;;;;;;;;;;15.10;99.90;;;;;;5122708;27;20010;-71
2022/11/07 12:52:35;;;;;;;;;;;15.10;99.90;;;;;;5123197;27;20018;-71
2022/11/07 12:55:04;;;;;;;;;;;15.20;99.90;;;;;;5135920;27;19931;-71
2022/11/07 12:57:32;;;;;;;;;;;15.20;99.90;;;;;;5135808;27;20027;-71
2022/11/07 13:00:04;;;;;;;;;;;15.20;99.90;;;;;;5130371;27;20018;-72
2022/11/07 13:02:37;;;;;;;;;;;15.20;99.90;;;;;;5120300;27;20014;-73
2022/11/07 13:05:13;;;;;;;;;;;15.10;99.90;;;;;;5116445;27;20027;-72
2022/11/07 13:07:40;;;;;;;;;;;14.90;99.90;;;;;;5125626;27;20022;-72
2022/11/07 13:10:11;;;;;;;;;;;14.90;99.90;;;;;;5132803;27;19929;-71
2022/11/07 13:12:39;;;;;;;;;;;15.00;99.90;;;;;;5133192;27;19963;-72
2022/11/07 13:15:10;;;;;;;;;;;15.00;99.90;;;;;;5124287;27;20381;-73
2022/11/07 13:17:39;;;;;;;;;;;15.10;99.90;;;;;;5120676;27;19966;-72
2022/11/07 13:20:06;;;;;;;;;;;15.20;99.90;;;;;;5128849;27;20022;-70
2022/11/07 13:22:35;;;;;;;;;;;15.30;99.90;;;;;;5119931;27;19923;-73
2022/11/07 13:25:21;;;;;;;;;;;15.40;99.90;;;;;;5131565;27;20404;-72
2022/11/07 13:28:00;;;;;;;;;;;15.30;99.90;;;;;;5127538;27;20386;-72
2022/11/07 13:30:35;;;;;;;;;;;15.20;99.90;;;;;;5119959;27;19935;-72
2022/11/07 13:33:02;;;;;;;;;;;15.20;99.90;;;;;;5126447;27;20389;-72
2022/11/07 13:35:30;;;;;;;;;;;15.10;99.90;;;;;;5130695;27;20013;-71
2022/11/07 13:37:58;;;;;;;;;;;15.00;99.90;;;;;;5064355;22;19934;-72
2022/11/07 13:40:25;;;;;;;;;;;15.00;99.90;;;;;;5088698;23;19924;-72
2022/11/07 13:42:54;;;;;;;;;;;15.00;99.90;;;;;;5104579;28;19959;-72
2022/11/07 13:45:25;;;;;;;;;;;15.00;99.90;;;;;;5109046;28;19931;-72
2022/11/07 13:47:54;;;;;;;;;;;14.90;99.90;;;;;;5112759;28;20334;-72
2022/11/07 13:50:23;;;;;;;;;;;14.90;99.90;;;;;;5114499;28;20395;-71
2022/11/07 13:52:55;;;;;;;;;;;14.80;99.90;;;;;;5113518;28;20018;-72
2022/11/07 13:55:23;;;;;;;;;;;14.80;99.90;;;;;;5109252;28;19955;-72
2022/11/07 13:57:52;;;;;;;;;;;14.90;99.90;;;;;;5081540;22;19969;-71
2022/11/07 14:00:19;;;;;;;;;;;14.90;99.90;;;;;;4947370;28;19933;-70
2022/11/07 14:02:51;;;;;;;;;;;14.90;99.90;;;;;;4939883;28;20037;-69
2022/11/07 14:05:20;;;;;;;;;;;14.90;99.90;;;;;;4946076;28;20427;-70
2022/11/07 14:07:48;;;;;;;;;;;14.90;99.90;;;;;;4950327;29;19926;-70
2022/11/07 14:10:19;;;;;;;;;;;14.80;99.90;;;;;;4950125;28;19995;-70
2022/11/07 14:12:46;;;;;;;;;;;14.80;99.90;;;;;;4941224;28;20029;-70
2022/11/07 14:15:15;;;;;;;;;;;14.90;99.90;;;;;;4945065;28;19957;-70
2022/11/07 14:17:44;;;;;;;;;;;14.90;99.90;;;;;;4947925;28;20343;-71
2022/11/07 14:20:14;;;;;;;;;;;15.00;99.90;;;;;;4950303;28;19972;-70
2022/11/07 14:22:49;;;;;;;;;;;15.00;99.90;;;;;;4945634;29;19938;-71
2022/11/07 14:25:20;;;;;;;;;;;15.00;99.90;;;;;;4949405;28;20660;-71
2022/11/07 14:27:46;;;;;;;;;;;15.00;99.90;;;;;;4947003;28;20013;-71
2022/11/07 14:30:15;;;;;;;;;;;15.10;99.90;;;;;;4948622;28;19974;-72
2022/11/07 14:32:46;;;;;;;;;;;15.00;99.90;;;;;;4938063;28;20047;-72
2022/11/07 14:35:17;;;;;;;;;;;15.00;99.90;;;;;;4945995;28;19926;-72
2022/11/07 14:37:44;;;;;;;;;;;14.90;99.90;;;;;;4949810;29;20017;-72